Time;durP1;ratioP1;P1;durP2;ratioP2;P2;SDS_P1;SDS_P2;PMS_P1;PMS_P2;Temp;Humidity;BMP_temperature;BMP_pressure;BME280_temperature;BME280_humidity;BME280_pressure;Samples;Min_cycle;Max_cycle;Signal;HPM_P1;HPM_P2
2022/03/24 00:00:06;;;;;;;13.63;3.60;;;19.50;91.30;;;;;;5034168;28;20172;-72
2022/03/24 00:02:33;;;;;;;13.80;3.17;;;19.60;91.00;;;;;;5063462;28;20627;-72
2022/03/24 00:05:01;;;;;;;17.20;3.30;;;19.40;90.60;;;;;;5049962;28;20216;-71
2022/03/24 00:07:29;;;;;;;10.33;3.50;;;19.50;90.40;;;;;;5041180;28;20219;-72
2022/03/24 00:09:56;;;;;;;15.80;3.50;;;19.50;90.90;;;;;;5053479;28;20199;-72
2022/03/24 00:12:23;;;;;;;16.87;3.40;;;19.60;91.10;;;;;;5051136;28;20188;-72
2022/03/24 00:14:51;;;;;;;12.17;3.30;;;19.60;90.90;;;;;;5048258;28;20187;-72
2022/03/24 00:17:21;;;;;;;10.50;3.30;;;19.70;91.20;;;;;;5049689;28;20659;-71
2022/03/24 00:19:48;;;;;;;14.63;3.47;;;19.70;90.80;;;;;;5052715;28;20184;-72
2022/03/24 00:22:15;;;;;;;10.40;3.47;;;19.70;90.90;;;;;;5052866;28;20183;-72
2022/03/24 00:24:43;;;;;;;11.07;3.40;;;19.80;90.80;;;;;;5048370;28;20685;-71
2022/03/24 00:27:10;;;;;;;16.03;3.37;;;19.80;90.60;;;;;;5053286;28;20195;-72
2022/03/24 00:29:38;;;;;;;9.70;3.10;;;19.80;90.70;;;;;;5051331;28;20181;-71
2022/03/24 00:32:06;;;;;;;16.40;3.87;;;19.80;90.70;;;;;;5033845;28;20697;-71
2022/03/24 00:34:33;;;;;;;11.17;2.97;;;19.80;90.70;;;;;;5048448;28;20183;-72
2022/03/24 00:37:02;;;;;;;9.40;2.97;;;19.70;90.50;;;;;;5052867;28;20192;-71
2022/03/24 00:39:34;;;;;;;10.87;3.20;;;19.60;89.50;;;;;;5044534;28;20199;-72
2022/03/24 00:42:11;;;;;;;12.40;3.63;;;19.60;89.80;;;;;;5044536;28;20298;-71
2022/03/24 00:44:42;;;;;;;10.83;3.37;;;19.60;89.50;;;;;;5050677;28;20570;-72
2022/03/24 00:47:16;;;;;;;14.33;3.33;;;19.70;89.90;;;;;;5046890;28;20181;-71
2022/03/24 00:49:44;;;;;;;15.97;3.10;;;19.70;89.70;;;;;;5044319;28;20207;-71
2022/03/24 00:52:11;;;;;;;13.13;3.07;;;19.70;89.80;;;;;;5045475;28;20183;-73
2022/03/24 00:54:39;;;;;;;15.90;3.57;;;19.70;89.80;;;;;;5051450;28;20199;-72
2022/03/24 00:57:07;;;;;;;12.93;3.60;;;19.70;90.40;;;;;;5046291;28;20638;-73
2022/03/24 00:59:35;;;;;;;15.17;3.67;;;19.70;90.40;;;;;;5040672;28;20184;-72
2022/03/24 01:02:02;;;;;;;15.90;3.53;;;19.70;90.50;;;;;;5049075;28;20184;-73
2022/03/24 01:04:30;;;;;;;13.53;3.30;;;19.70;90.50;;;;;;5043526;28;20226;-73
2022/03/24 01:06:57;;;;;;;14.83;3.40;;;19.70;90.30;;;;;;5046198;28;20227;-73
2022/03/24 01:09:25;;;;;;;11.37;3.57;;;19.70;90.30;;;;;;5047845;28;20280;-72
2022/03/24 01:11:52;;;;;;;13.37;3.70;;;19.70;90.40;;;;;;5049529;28;20230;-73
2022/03/24 01:14:19;;;;;;;20.57;9.33;;;19.80;90.40;;;;;;5049314;28;20194;-72
2022/03/24 01:16:47;;;;;;;19.03;8.17;;;19.80;90.50;;;;;;5050136;28;20191;-73
2022/03/24 01:19:14;;;;;;;11.30;4.20;;;19.80;90.40;;;;;;5049021;28;20176;-72
2022/03/24 01:21:42;;;;;;;11.77;3.37;;;19.80;90.40;;;;;;5052694;28;20184;-72
2022/03/24 01:24:10;;;;;;;13.00;3.20;;;19.80;89.80;;;;;;5044861;28;20231;-73
2022/03/24 01:26:37;;;;;;;15.07;2.97;;;19.90;89.70;;;;;;5049857;28;20191;-72
2022/03/24 01:29:05;;;;;;;12.23;2.70;;;19.90;89.60;;;;;;5051705;28;20184;-72
2022/03/24 01:31:33;;;;;;;12.80;3.87;;;19.90;89.50;;;;;;5052513;28;20639;-73
2022/03/24 01:34:00;;;;;;;12.87;2.97;;;20.00;89.70;;;;;;5051634;28;20194;-73
2022/03/24 01:36:28;;;;;;;12.43;3.03;;;19.80;89.60;;;;;;5050772;28;20223;-74
2022/03/24 01:38:55;;;;;;;13.53;3.87;;;19.80;89.80;;;;;;5052919;28;20237;-74
2022/03/24 01:41:22;;;;;;;22.07;3.47;;;19.80;90.60;;;;;;5049826;28;20681;-72
2022/03/24 01:43:50;;;;;;;11.23;3.00;;;19.80;90.80;;;;;;5049454;28;20198;-73
2022/03/24 01:46:21;;;;;;;14.17;3.63;;;19.90;90.70;;;;;;5050042;28;20211;-73
2022/03/24 01:48:49;;;;;;;16.87;3.57;;;19.90;90.70;;;;;;5050565;28;20216;-74
2022/03/24 01:51:17;;;;;;;14.83;3.20;;;19.90;90.70;;;;;;5048127;28;20665;-74
2022/03/24 01:53:45;;;;;;;13.60;3.63;;;19.80;90.50;;;;;;5051739;28;20259;-74
2022/03/24 01:56:13;;;;;;;11.87;3.57;;;19.80;90.90;;;;;;5051358;28;20233;-74
2022/03/24 01:58:43;;;;;;;14.90;3.37;;;19.80;91.00;;;;;;5047101;28;20216;-73
2022/03/24 02:01:36;;;;;;;12.20;3.60;;;19.90;91.10;;;;;;5051572;28;20537;-73
2022/03/24 02:04:05;;;;;;;10.00;3.27;;;20.00;91.30;;;;;;5048814;28;20211;-73
2022/03/24 02:06:33;;;;;;;9.77;3.00;;;20.00;90.80;;;;;;5049658;28;20246;-73
2022/03/24 02:09:02;;;;;;;9.87;3.37;;;20.00;90.30;;;;;;5052731;28;20210;-74
2022/03/24 02:11:34;;;;;;;9.33;3.53;;;20.00;90.60;;;;;;5050516;28;20188;-73
2022/03/24 02:14:02;;;;;;;11.33;3.40;;;19.90;90.80;;;;;;5051096;28;20184;-73
2022/03/24 02:16:40;;;;;;;12.60;3.13;;;20.00;91.10;;;;;;5048891;28;20190;-73
2022/03/24 02:19:19;;;;;;;13.93;3.97;;;20.20;91.10;;;;;;5051317;28;22273;-73
2022/03/24 02:21:47;;;;;;;11.17;3.93;;;20.20;90.60;;;;;;5050491;28;20185;-73
2022/03/24 02:24:16;;;;;;;18.10;4.07;;;20.20;90.50;;;;;;5053946;28;20218;-73
2022/03/24 02:26:45;;;;;;;12.23;4.07;;;20.20;90.60;;;;;;5054802;28;20196;-73
2022/03/24 02:29:17;;;;;;;9.07;3.47;;;20.20;90.40;;;;;;5055334;28;20654;-74
2022/03/24 02:31:47;;;;;;;9.57;3.63;;;20.10;89.60;;;;;;5053109;28;20195;-73
2022/03/24 02:37:07;;;;;;;13.73;3.77;;;20.10;89.50;;;;;;5051957;28;20194;-73
2022/03/24 02:39:43;;;;;;;13.20;3.13;;;20.10;89.90;;;;;;5051541;28;20464;-73
2022/03/24 02:42:14;;;;;;;13.30;3.60;;;20.10;89.80;;;;;;5045627;28;20642;-74
2022/03/24 02:44:46;;;;;;;11.83;3.30;;;20.00;89.80;;;;;;5052608;28;20227;-74
2022/03/24 02:47:15;;;;;;;12.23;3.63;;;19.80;89.80;;;;;;5053163;28;20179;-73
2022/03/24 02:49:45;;;;;;;15.70;4.07;;;19.70;90.40;;;;;;5051731;28;20239;-75
2022/03/24 02:52:13;;;;;;;13.83;4.13;;;19.80;90.90;;;;;;5035827;28;20582;-75
2022/03/24 02:54:42;;;;;;;20.17;6.50;;;19.80;91.00;;;;;;5054853;28;20630;-75
2022/03/24 02:57:10;;;;;;;13.40;5.10;;;19.70;91.50;;;;;;5055441;28;20179;-75
2022/03/24 02:59:38;;;;;;;11.90;4.93;;;19.70;91.80;;;;;;5055148;28;20176;-75
2022/03/24 03:02:14;;;;;;;9.47;3.70;;;19.70;92.20;;;;;;5051174;28;20638;-76
2022/03/24 03:04:43;;;;;;;12.60;4.00;;;19.60;92.10;;;;;;5051287;28;20674;-75
2022/03/24 03:07:11;;;;;;;11.23;4.00;;;19.60;92.50;;;;;;5054853;28;20243;-75
2022/03/24 03:09:42;;;;;;;10.40;4.30;;;19.70;92.60;;;;;;5055374;28;20619;-75
2022/03/24 03:12:10;;;;;;;10.30;4.10;;;19.70;92.70;;;;;;5055015;28;20191;-75
2022/03/24 03:14:38;;;;;;;9.27;4.03;;;19.70;92.70;;;;;;5052641;28;20216;-74
2022/03/24 03:17:06;;;;;;;11.90;3.83;;;19.70;93.00;;;;;;5054877;28;20179;-74
2022/03/24 03:19:34;;;;;;;9.33;3.00;;;19.80;93.10;;;;;;5055139;28;20228;-75
2022/03/24 03:22:04;;;;;;;13.97;3.13;;;19.80;92.80;;;;;;5044286;28;20191;-75
2022/03/24 03:24:31;;;;;;;8.10;3.00;;;19.80;92.30;;;;;;5054051;28;20547;-75
2022/03/24 03:26:59;;;;;;;8.43;2.90;;;19.90;92.40;;;;;;5048297;28;20177;-75
2022/03/24 03:29:27;;;;;;;10.10;2.77;;;19.90;92.20;;;;;;5055181;28;20179;-74
2022/03/24 03:31:55;;;;;;;5.83;2.40;;;19.90;91.60;;;;;;5055126;28;20172;-75
2022/03/24 03:34:24;;;;;;;11.67;2.87;;;19.90;91.50;;;;;;5055097;28;20183;-74
2022/03/24 03:36:55;;;;;;;7.97;2.80;;;19.90;91.40;;;;;;5054646;28;20176;-74
2022/03/24 03:39:26;;;;;;;10.40;2.70;;;20.00;91.50;;;;;;5054937;28;20283;-74
2022/03/24 03:41:54;;;;;;;11.07;3.10;;;20.20;91.30;;;;;;5058745;28;20178;-73
2022/03/24 03:44:34;;;;;;;9.43;3.03;;;20.30;91.00;;;;;;5041021;28;20204;-73
2022/03/24 03:47:02;;;;;;;9.93;3.47;;;20.40;90.60;;;;;;5038506;28;20175;-73
2022/03/24 03:49:29;;;;;;;12.57;3.80;;;20.60;90.90;;;;;;5037443;28;20219;-73
2022/03/24 03:51:57;;;;;;;9.37;3.30;;;20.60;89.80;;;;;;5035623;28;20173;-73
2022/03/24 03:54:24;;;;;;;14.30;3.33;;;20.80;90.10;;;;;;5041377;28;20671;-73
2022/03/24 03:56:51;;;;;;;14.90;3.20;;;21.00;89.70;;;;;;5033403;28;20232;-73
2022/03/24 03:59:19;;;;;;;11.53;3.07;;;21.00;87.60;;;;;;5033639;28;20172;-73
2022/03/24 04:01:47;;;;;;;15.43;2.90;;;21.10;87.70;;;;;;5035594;28;20172;-72
2022/03/24 04:04:15;;;;;;;11.73;3.07;;;21.30;87.80;;;;;;5050363;28;20247;-73
2022/03/24 04:06:45;;;;;;;7.37;2.30;;;21.40;87.50;;;;;;5051762;28;20263;-72
2022/03/24 04:09:13;;;;;;;14.87;4.30;;;21.20;84.80;;;;;;5053678;28;20180;-72
2022/03/24 04:11:40;;;;;;;15.50;6.80;;;21.20;84.90;;;;;;5053612;28;20225;-73
2022/03/24 04:14:07;;;;;;;14.30;5.83;;;21.20;85.40;;;;;;5045471;28;20181;-73
2022/03/24 04:16:35;;;;;;;13.17;3.50;;;21.20;84.10;;;;;;5051902;28;20233;-74
2022/03/24 04:19:05;;;;;;;11.20;2.77;;;21.30;84.40;;;;;;5046747;28;20177;-73
2022/03/24 04:21:32;;;;;;;9.60;2.43;;;21.30;84.20;;;;;;5034260;28;20165;-73
2022/03/24 04:24:00;;;;;;;17.00;2.50;;;20.90;83.00;;;;;;5034030;28;20687;-73
2022/03/24 04:26:27;;;;;;;14.87;2.53;;;21.10;83.90;;;;;;5033592;28;20666;-73
2022/03/24 04:28:54;;;;;;;12.47;2.73;;;21.20;84.60;;;;;;5038058;28;20570;-73
2022/03/24 04:31:22;;;;;;;14.30;2.77;;;21.20;84.50;;;;;;5053485;28;20218;-73
2022/03/24 04:33:50;;;;;;;15.87;3.33;;;21.30;83.90;;;;;;5053225;28;20552;-72
2022/03/24 04:36:17;;;;;;;14.13;2.40;;;21.30;84.10;;;;;;5053099;28;20218;-72
2022/03/24 04:38:45;;;;;;;9.73;3.20;;;21.40;83.60;;;;;;5053178;28;20195;-72
2022/03/24 04:41:13;;;;;;;9.90;2.33;;;21.50;84.20;;;;;;5049706;28;20582;-73
2022/03/24 04:43:40;;;;;;;12.83;2.57;;;21.50;82.00;;;;;;5053153;28;20232;-73
2022/03/24 04:46:08;;;;;;;8.93;2.00;;;21.50;81.80;;;;;;5053216;28;20242;-72
2022/03/24 04:48:38;;;;;;;10.03;2.33;;;21.80;81.40;;;;;;5039884;28;20216;-73
2022/03/24 04:51:07;;;;;;;13.93;2.50;;;21.90;80.70;;;;;;5033372;28;20211;-73
2022/03/24 04:53:35;;;;;;;14.20;1.97;;;22.10;80.70;;;;;;5031831;28;20640;-73
2022/03/24 04:56:02;;;;;;;14.03;5.20;;;22.10;80.80;;;;;;5033164;28;20185;-73
2022/03/24 04:58:31;;;;;;;25.10;11.73;;;22.10;79.30;;;;;;5032989;28;20542;-74
2022/03/24 05:00:59;;;;;;;13.17;5.73;;;22.00;78.70;;;;;;5033053;28;20267;-74
2022/03/24 05:03:28;;;;;;;10.23;2.80;;;22.30;79.40;;;;;;5039226;28;20195;-73
2022/03/24 05:05:55;;;;;;;5.97;2.30;;;22.30;78.60;;;;;;5052783;28;20231;-74
2022/03/24 05:08:23;;;;;;;9.10;2.43;;;22.20;77.70;;;;;;5053199;28;20647;-74
2022/03/24 05:10:50;;;;;;;6.77;2.37;;;22.20;78.10;;;;;;5040968;28;20181;-74
2022/03/24 05:13:18;;;;;;;13.27;4.10;;;22.30;78.70;;;;;;5031539;28;20623;-75
2022/03/24 05:15:45;;;;;;;11.57;3.67;;;22.50;76.90;;;;;;5033099;28;20173;-76
2022/03/24 05:18:12;;;;;;;14.23;5.77;;;22.90;76.50;;;;;;5033075;28;20181;-77
2022/03/24 05:21:04;;;;;;;10.23;3.57;;;22.80;76.90;;;;;;5032844;28;20504;-75
2022/03/24 05:23:32;;;;;;;7.57;1.90;;;22.80;75.90;;;;;;5029877;28;20188;-77
2022/03/24 05:25:59;;;;;;;12.10;2.30;;;22.80;76.70;;;;;;5052463;28;20219;-78
2022/03/24 05:28:27;;;;;;;12.40;3.33;;;22.70;77.60;;;;;;5052867;28;20217;-77
2022/03/24 05:30:54;;;;;;;8.70;2.63;;;22.50;77.60;;;;;;5052597;28;20187;-80
2022/03/24 05:33:21;;;;;;;9.93;2.20;;;22.20;78.10;;;;;;5048040;28;20302;-78
2022/03/24 05:35:49;;;;;;;9.70;1.93;;;22.10;79.00;;;;;;5052707;28;20662;-77
2022/03/24 05:38:16;;;;;;;9.00;2.10;;;21.90;78.80;;;;;;5052851;28;20180;-76
2022/03/24 05:40:44;;;;;;;8.37;1.73;;;21.80;80.20;;;;;;5052397;28;20211;-78
2022/03/24 05:43:11;;;;;;;10.83;2.90;;;21.50;79.40;;;;;;5052701;28;20187;-78
2022/03/24 05:45:39;;;;;;;9.23;1.73;;;21.50;79.50;;;;;;5052772;28;20211;-79
2022/03/24 05:48:07;;;;;;;9.07;1.90;;;21.60;80.10;;;;;;5043941;28;20172;-79
2022/03/24 05:50:34;;;;;;;14.23;6.50;;;21.50;79.20;;;;;;5056655;28;20183;-78
2022/03/24 05:53:02;;;;;;;9.43;3.20;;;21.50;80.00;;;;;;5057048;28;20168;-78
2022/03/24 05:55:30;;;;;;;15.77;4.27;;;21.50;79.60;;;;;;5057545;28;20202;-78
2022/03/24 05:57:57;;;;;;;13.00;5.33;;;21.30;79.90;;;;;;5056901;28;20321;-78
2022/03/24 06:00:24;;;;;;;12.53;4.70;;;21.40;80.50;;;;;;5056537;28;20168;-78
2022/03/24 06:02:53;;;;;;;8.13;2.60;;;21.40;80.90;;;;;;5055469;28;20172;-79
2022/03/24 06:05:23;;;;;;;8.17;2.30;;;21.30;80.40;;;;;;5053890;28;20223;-78
2022/03/24 06:07:51;;;;;;;9.53;2.63;;;21.30;79.90;;;;;;5056524;28;20220;-79
2022/03/24 06:10:18;;;;;;;11.23;2.50;;;21.30;80.40;;;;;;5051675;28;20191;-78
2022/03/24 06:12:47;;;;;;;11.17;2.23;;;21.30;80.00;;;;;;5041788;28;20199;-78
2022/03/24 06:15:15;;;;;;;10.10;2.00;;;21.20;79.50;;;;;;5055716;28;20171;-79
2022/03/24 06:17:42;;;;;;;13.13;2.37;;;21.20;80.60;;;;;;5053804;28;20222;-77
2022/03/24 06:20:10;;;;;;;11.20;2.30;;;21.20;80.10;;;;;;5055192;28;20265;-79
2022/03/24 06:22:54;;;;;;;11.30;2.33;;;21.20;80.20;;;;;;5056108;28;20221;-78
2022/03/24 06:25:22;;;;;;;12.63;2.93;;;21.20;80.10;;;;;;5056131;28;20277;-77
2022/03/24 06:27:50;;;;;;;10.93;2.97;;;21.20;80.30;;;;;;5056462;28;20164;-80
2022/03/24 06:30:19;;;;;;;14.43;3.03;;;21.20;80.40;;;;;;5056933;28;20176;-76
2022/03/24 06:32:47;;;;;;;6.80;2.50;;;21.30;80.30;;;;;;5055835;28;20183;-76
2022/03/24 06:35:15;;;;;;;13.03;5.03;;;21.20;79.80;;;;;;5055358;28;20183;-78
2022/03/24 06:37:44;;;;;;;14.87;3.03;;;21.20;79.70;;;;;;5055210;28;20647;-76
2022/03/24 06:40:14;;;;;;;11.43;2.93;;;21.30;80.10;;;;;;5055410;28;20673;-76
2022/03/24 06:42:41;;;;;;;10.17;2.50;;;21.30;79.80;;;;;;5055165;28;20164;-76
2022/03/24 06:45:10;;;;;;;9.03;2.50;;;21.30;79.90;;;;;;5052284;28;20677;-77
2022/03/24 06:47:39;;;;;;;7.50;2.00;;;21.30;79.70;;;;;;5049481;28;20271;-78
2022/03/24 06:50:10;;;;;;;9.87;2.13;;;21.30;79.90;;;;;;5048774;28;20298;-75
2022/03/24 06:52:37;;;;;;;12.60;2.40;;;21.30;79.80;;;;;;5054614;28;20176;-76
2022/03/24 06:55:06;;;;;;;12.27;2.27;;;21.20;80.30;;;;;;5052112;28;20217;-80
2022/03/24 06:57:34;;;;;;;9.40;2.43;;;21.20;80.30;;;;;;5054901;28;20195;-78
2022/03/24 07:00:03;;;;;;;10.47;2.40;;;21.30;80.70;;;;;;5059863;28;20171;-77
2022/03/24 07:02:31;;;;;;;8.40;2.03;;;21.30;80.50;;;;;;5061416;28;20678;-77
2022/03/24 07:04:58;;;;;;;11.37;2.37;;;21.30;80.20;;;;;;5055123;28;20674;-79
2022/03/24 07:07:27;;;;;;;6.57;2.00;;;21.30;80.40;;;;;;5055082;28;20719;-77
2022/03/24 07:09:54;;;;;;;8.17;1.93;;;21.30;80.50;;;;;;5048851;28;20282;-81
2022/03/24 07:12:22;;;;;;;12.80;2.43;;;21.30;80.40;;;;;;5045012;28;20184;-80
2022/03/24 07:14:49;;;;;;;6.70;2.13;;;21.30;80.20;;;;;;5052985;28;20183;-83
2022/03/24 07:17:19;;;;;;;10.43;2.33;;;21.30;80.20;;;;;;5053854;28;20191;-80
2022/03/24 07:19:47;;;;;;;12.00;2.03;;;21.30;80.60;;;;;;5046444;28;20196;-83
2022/03/24 07:22:15;;;;;;;15.27;2.83;;;21.20;81.20;;;;;;5049425;28;20195;-79
2022/03/24 07:24:44;;;;;;;10.57;2.57;;;21.20;81.40;;;;;;5052273;28;20234;-75
2022/03/24 07:27:14;;;;;;;8.27;2.03;;;21.00;82.80;;;;;;5053491;28;20219;-77
2022/03/24 07:29:42;;;;;;;12.67;2.43;;;20.80;83.80;;;;;;5054651;28;20608;-78
2022/03/24 07:32:10;;;;;;;11.70;2.60;;;20.80;84.80;;;;;;5055298;28;20251;-79
2022/03/24 07:34:37;;;;;;;8.43;2.17;;;20.60;85.50;;;;;;5049908;28;20184;-75
2022/03/24 07:37:05;;;;;;;11.83;2.63;;;20.60;86.20;;;;;;5049258;28;20245;-78
2022/03/24 07:39:33;;;;;;;9.20;2.40;;;20.50;86.60;;;;;;5053356;28;20180;-78
2022/03/24 07:42:01;;;;;;;9.70;2.60;;;20.50;86.90;;;;;;5047621;28;20187;-78
2022/03/24 07:44:28;;;;;;;8.63;2.27;;;20.50;87.20;;;;;;5052736;28;20203;-79
2022/03/24 07:46:55;;;;;;;7.20;2.17;;;20.30;87.30;;;;;;5053579;28;20176;-77
2022/03/24 07:49:23;;;;;;;10.07;3.23;;;20.20;88.20;;;;;;5038618;28;20226;-75
2022/03/24 07:51:50;;;;;;;10.50;3.20;;;20.00;89.00;;;;;;5033367;28;20183;-75
2022/03/24 07:54:31;;;;;;;8.20;2.93;;;19.90;89.60;;;;;;5051319;28;20190;-74
2022/03/24 07:56:58;;;;;;;9.53;3.07;;;19.80;90.30;;;;;;5035843;28;20179;-74
2022/03/24 07:59:26;;;;;;;15.00;7.30;;;19.80;90.50;;;;;;5052229;28;20265;-75
2022/03/24 08:01:54;;;;;;;12.70;5.37;;;19.70;90.90;;;;;;5037798;28;20200;-74
2022/03/24 08:04:21;;;;;;;13.30;5.50;;;19.60;90.70;;;;;;5053490;28;20207;-74
2022/03/24 08:06:48;;;;;;;13.30;7.23;;;19.50;91.00;;;;;;5049146;28;20224;-74
2022/03/24 08:09:16;;;;;;;11.47;3.60;;;19.50;91.20;;;;;;5036754;28;20495;-74
2022/03/24 08:11:43;;;;;;;9.73;3.00;;;19.50;91.50;;;;;;5050411;28;20270;-74
2022/03/24 08:14:11;;;;;;;9.50;2.97;;;19.50;91.80;;;;;;5041224;28;20180;-74
2022/03/24 08:16:38;;;;;;;9.53;3.70;;;19.50;92.10;;;;;;5034123;28;20181;-73
2022/03/24 08:19:05;;;;;;;9.47;3.57;;;19.40;92.10;;;;;;5034296;28;20546;-73
2022/03/24 08:21:33;;;;;;;11.47;3.23;;;19.30;92.00;;;;;;5053432;28;20184;-73
2022/03/24 08:24:00;;;;;;;12.47;3.83;;;19.20;92.20;;;;;;5049468;28;20701;-74
2022/03/24 08:26:27;;;;;;;14.07;3.80;;;19.20;92.50;;;;;;5038152;28;20192;-75
2022/03/24 08:28:57;;;;;;;10.57;3.83;;;19.30;92.80;;;;;;5048339;28;20504;-74
2022/03/24 08:31:24;;;;;;;11.67;4.00;;;19.20;92.70;;;;;;5042955;28;20190;-75
2022/03/24 08:33:52;;;;;;;10.90;3.20;;;19.20;93.00;;;;;;5046484;28;20195;-77
2022/03/24 08:36:19;;;;;;;11.87;3.37;;;19.20;93.10;;;;;;5053023;28;20187;-76
2022/03/24 08:38:47;;;;;;;7.10;2.60;;;19.10;93.30;;;;;;5046105;28;20211;-76
2022/03/24 08:41:14;;;;;;;7.70;2.70;;;18.90;92.90;;;;;;5048663;28;20278;-75
2022/03/24 08:43:42;;;;;;;11.60;3.20;;;18.80;93.10;;;;;;5045539;28;20545;-76
2022/03/24 08:46:10;;;;;;;5.63;3.17;;;18.80;93.10;;;;;;5045964;28;20273;-76
2022/03/24 08:48:37;;;;;;;8.67;3.23;;;18.80;93.40;;;;;;5045670;28;20184;-76
2022/03/24 08:51:06;;;;;;;8.33;3.30;;;18.70;93.40;;;;;;5035833;28;20177;-75
2022/03/24 08:53:33;;;;;;;8.50;3.57;;;18.60;93.50;;;;;;5033800;28;20195;-75
2022/03/24 08:56:00;;;;;;;9.90;3.53;;;18.60;93.60;;;;;;5037265;28;20529;-74
2022/03/24 08:58:28;;;;;;;7.27;3.73;;;18.60;93.70;;;;;;5037215;28;20177;-73
2022/03/24 09:00:55;;;;;;;10.90;3.70;;;18.50;93.40;;;;;;5046437;28;20186;-75
2022/03/24 09:03:23;;;;;;;6.97;3.87;;;18.50;93.70;;;;;;5053283;28;20176;-74
2022/03/24 09:05:50;;;;;;;9.27;4.13;;;18.50;93.60;;;;;;5051695;28;20306;-75
2022/03/24 09:08:17;;;;;;;11.60;4.57;;;18.40;93.50;;;;;;5046120;28;20180;-76
2022/03/24 09:10:47;;;;;;;12.60;4.40;;;18.40;93.70;;;;;;5050659;28;20703;-75
2022/03/24 09:13:14;;;;;;;8.50;4.10;;;18.40;93.70;;;;;;5050104;28;20183;-75
2022/03/24 09:15:48;;;;;;;8.83;3.83;;;18.30;93.20;;;;;;5048927;28;20184;-75
2022/03/24 09:18:16;;;;;;;11.03;4.00;;;18.30;92.90;;;;;;5048756;28;20643;-75
2022/03/24 09:20:47;;;;;;;8.20;3.40;;;18.30;92.60;;;;;;5052892;28;20660;-75
2022/03/24 09:23:14;;;;;;;6.43;3.73;;;18.30;92.40;;;;;;5051984;28;20192;-74
2022/03/24 09:25:41;;;;;;;7.83;4.00;;;18.30;92.30;;;;;;5049388;28;20281;-74
2022/03/24 09:28:10;;;;;;;12.47;4.33;;;18.30;92.50;;;;;;5052506;28;20172;-75
2022/03/24 09:30:37;;;;;;;7.50;3.70;;;18.40;92.40;;;;;;5039012;28;20177;-74
2022/03/24 09:33:05;;;;;;;7.77;3.87;;;18.30;92.40;;;;;;5035456;28;20433;-74
2022/03/24 09:35:33;;;;;;;9.17;3.90;;;18.40;92.70;;;;;;5049248;28;20182;-75
2022/03/24 09:38:01;;;;;;;10.37;3.57;;;18.40;92.80;;;;;;5050343;28;20188;-75
2022/03/24 09:40:29;;;;;;;7.07;3.47;;;18.40;93.10;;;;;;5052461;28;20267;-76
2022/03/24 09:43:01;;;;;;;19.90;14.93;;;18.40;93.30;;;;;;5037946;28;20181;-75
2022/03/24 09:45:29;;;;;;;19.73;10.87;;;18.40;93.50;;;;;;5032780;28;20211;-75
2022/03/24 09:47:56;;;;;;;9.63;4.30;;;18.40;93.70;;;;;;5052110;28;20184;-75
2022/03/24 09:50:27;;;;;;;9.93;3.90;;;18.50;93.90;;;;;;5051106;28;20187;-75
2022/03/24 09:52:56;;;;;;;13.83;4.47;;;18.50;94.00;;;;;;5052603;28;20585;-75
2022/03/24 09:55:23;;;;;;;8.50;4.00;;;18.50;94.10;;;;;;5036503;28;20222;-75
2022/03/24 09:57:51;;;;;;;9.43;3.90;;;18.60;94.30;;;;;;5035488;28;20176;-76
2022/03/24 10:00:18;;;;;;;5.63;3.67;;;18.60;94.50;;;;;;5047520;28;20169;-75
2022/03/24 10:03:10;;;;;;;9.47;4.07;;;18.70;94.70;;;;;;5032412;28;20549;-75
2022/03/24 10:05:52;;;;;;;8.73;4.00;;;18.70;94.60;;;;;;5040448;28;20223;-76
2022/03/24 10:08:20;;;;;;;7.07;3.90;;;18.70;94.50;;;;;;5045524;28;20620;-75
2022/03/24 10:10:47;;;;;;;7.73;3.53;;;18.70;94.60;;;;;;5048709;28;20238;-76
2022/03/24 10:13:25;;;;;;;8.30;4.10;;;18.70;94.70;;;;;;5048342;28;20263;-76
2022/03/24 10:15:53;;;;;;;5.40;3.93;;;18.70;94.70;;;;;;5044813;28;20188;-76
2022/03/24 10:18:21;;;;;;;5.83;4.17;;;18.70;94.70;;;;;;5049491;28;20180;-75
2022/03/24 10:20:48;;;;;;;7.30;3.67;;;18.70;94.70;;;;;;5049075;28;20253;-75
2022/03/24 10:23:15;;;;;;;10.70;4.03;;;18.60;94.40;;;;;;5050460;28;20196;-75
2022/03/24 10:25:46;;;;;;;8.43;3.53;;;18.60;94.50;;;;;;5052018;28;20211;-74
2022/03/24 10:28:21;;;;;;;9.73;3.90;;;18.50;94.00;;;;;;5051840;28;20298;-75
2022/03/24 10:30:59;;;;;;;11.50;4.53;;;18.50;94.10;;;;;;5036080;28;20192;-75
2022/03/24 10:33:30;;;;;;;10.47;5.70;;;18.50;94.10;;;;;;5043646;28;20262;-75
2022/03/24 10:36:12;;;;;;;17.50;10.30;;;18.50;94.10;;;;;;5044527;28;20181;-75
2022/03/24 10:38:48;;;;;;;27.10;16.47;;;18.50;94.00;;;;;;5043804;28;20198;-75
2022/03/24 10:41:23;;;;;;;25.40;14.90;;;18.50;94.10;;;;;;5044913;28;20187;-75
2022/03/24 10:43:53;;;;;;;22.23;14.63;;;18.50;94.30;;;;;;5054582;28;20181;-74
2022/03/24 10:46:26;;;;;;;27.63;15.67;;;18.50;94.10;;;;;;5055617;28;20214;-75
2022/03/24 10:48:54;;;;;;;30.90;15.33;;;18.50;94.30;;;;;;5049804;28;20183;-75
2022/03/24 10:51:33;;;;;;;18.93;12.07;;;18.60;94.50;;;;;;5036822;28;20542;-76
2022/03/24 10:54:19;;;;;;;14.70;8.13;;;18.60;94.60;;;;;;5046668;28;20183;-75
2022/03/24 10:57:04;;;;;;;8.33;5.83;;;18.50;94.20;;;;;;5038340;28;20257;-74
2022/03/24 10:59:40;;;;;;;8.43;4.73;;;18.50;94.40;;;;;;5037956;28;20222;-74
2022/03/24 11:02:08;;;;;;;12.03;5.00;;;18.50;94.40;;;;;;5053029;28;20716;-74
2022/03/24 11:04:35;;;;;;;6.93;4.30;;;18.50;94.30;;;;;;5047571;28;20224;-75
2022/03/24 11:07:04;;;;;;;6.57;4.03;;;18.50;94.20;;;;;;5036525;28;20223;-75
2022/03/24 11:09:33;;;;;;;7.30;4.27;;;18.50;94.30;;;;;;5035498;28;20173;-77
2022/03/24 11:12:26;;;;;;;7.03;4.47;;;18.50;94.30;;;;;;5038810;28;20230;-77
2022/03/24 11:14:58;;;;;;;8.93;4.57;;;18.50;94.50;;;;;;5052754;28;20180;-79
2022/03/24 11:17:30;;;;;;;7.13;4.77;;;18.50;94.60;;;;;;5055408;28;20176;-80
2022/03/24 11:20:22;;;;;;;6.30;4.27;;;18.60;94.70;;;;;;5055642;28;20176;-80
2022/03/24 11:23:20;;;;;;;8.73;4.77;;;18.60;94.70;;;;;;5054946;28;20164;-79
2022/03/24 11:25:48;;;;;;;10.87;5.70;;;18.60;94.90;;;;;;5034203;28;20224;-76
2022/03/24 11:28:17;;;;;;;9.03;5.27;;;18.60;95.00;;;;;;5050821;28;20179;-75
2022/03/24 11:30:45;;;;;;;9.23;5.70;;;18.60;95.00;;;;;;5053486;28;20191;-75
2022/03/24 11:33:13;;;;;;;8.90;5.60;;;18.50;95.10;;;;;;5055139;28;20214;-75
2022/03/24 11:35:41;;;;;;;8.67;6.30;;;18.60;95.10;;;;;;5052407;28;20201;-76
2022/03/24 11:38:09;;;;;;;9.10;5.97;;;18.60;95.30;;;;;;5053567;28;20175;-76
2022/03/24 11:40:39;;;;;;;7.80;5.70;;;18.60;95.20;;;;;;5054573;28;20649;-82
2022/03/24 11:43:15;;;;;;;10.90;5.63;;;18.50;95.20;;;;;;5054686;28;20707;-83
2022/03/24 11:46:02;;;;;;;8.67;4.80;;;18.50;95.20;;;;;;5054015;28;20674;-80
2022/03/24 11:48:38;;;;;;;6.97;4.67;;;18.50;95.30;;;;;;5051615;28;20184;-78
2022/03/24 11:51:20;;;;;;;7.83;4.90;;;18.40;95.20;;;;;;5046503;28;20203;-76
2022/03/24 11:54:02;;;;;;;8.10;5.50;;;18.40;95.30;;;;;;5053396;28;20180;-78
2022/03/24 11:56:29;;;;;;;9.30;5.50;;;18.50;95.30;;;;;;5053424;28;20570;-77
2022/03/24 11:58:57;;;;;;;6.93;5.40;;;18.50;95.40;;;;;;5053180;28;20211;-77
2022/03/24 12:01:29;;;;;;;5.47;4.97;;;18.60;95.40;;;;;;5054039;28;20176;-76
2022/03/24 12:04:14;;;;;;;6.00;4.80;;;18.60;95.30;;;;;;5054413;28;20183;-76
2022/03/24 12:06:48;;;;;;;8.83;4.80;;;18.60;95.30;;;;;;5053337;28;20232;-76
2022/03/24 12:09:17;;;;;;;7.73;4.73;;;18.50;95.30;;;;;;5053201;28;20194;-77
2022/03/24 12:12:04;;;;;;;7.17;5.50;;;18.50;95.30;;;;;;5051796;28;20274;-76
2022/03/24 12:14:31;;;;;;;7.57;4.83;;;18.50;95.30;;;;;;5054356;28;20215;-76
2022/03/24 12:17:07;;;;;;;5.23;4.67;;;18.60;95.30;;;;;;5053917;28;20691;-74
2022/03/24 12:19:37;;;;;;;7.13;4.53;;;18.60;95.30;;;;;;5054206;28;20258;-78
2022/03/24 12:22:33;;;;;;;11.93;5.00;;;18.60;95.40;;;;;;5052418;28;20191;-78
2022/03/24 12:25:00;;;;;;;5.53;4.93;;;18.70;95.40;;;;;;5048979;28;20307;-79
2022/03/24 12:27:28;;;;;;;5.40;4.60;;;18.70;95.40;;;;;;5033716;28;20668;-79
2022/03/24 12:30:15;;;;;;;8.20;4.70;;;18.70;95.40;;;;;;5039564;28;20202;-79
2022/03/24 12:32:43;;;;;;;7.03;4.70;;;18.70;95.40;;;;;;5051840;28;20274;-77
2022/03/24 12:35:45;;;;;;;7.27;4.73;;;18.70;95.40;;;;;;5046854;28;20184;-76
2022/03/24 12:38:31;;;;;;;6.07;4.50;;;18.70;95.40;;;;;;5049233;28;20522;-77
2022/03/24 12:41:08;;;;;;;5.67;4.50;;;18.70;95.50;;;;;;5039002;28;20176;-76
2022/03/24 12:43:49;;;;;;;7.43;4.90;;;18.70;95.40;;;;;;5046158;28;20269;-76
2022/03/24 12:46:33;;;;;;;7.33;4.90;;;18.70;95.30;;;;;;5053268;28;20215;-78
2022/03/24 12:49:20;;;;;;;5.43;4.93;;;18.70;95.50;;;;;;5052343;28;20650;-77
2022/03/24 12:52:02;;;;;;;9.90;5.17;;;18.70;95.50;;;;;;5040353;28;20654;-77
2022/03/24 12:54:53;;;;;;;5.00;4.50;;;18.80;95.40;;;;;;5053230;28;20176;-75
2022/03/24 12:57:23;;;;;;;5.40;4.37;;;18.70;95.50;;;;;;5051213;28;20259;-76